Main page
METAR-TAF:

METAR-TAF

Airports :

Girona–Costa Brava Airport

Girona, Spain

latitude: 41-54N, longitude: 002-46E, elevation: 143 m

Current weather observation

The report was made 27 minutes ago, at 11:30 UTC
Wind 2 kt from variable directions
Temperature 13°C
Humidity 72%
Pressure 1015 hPa
Visibility 10 km or more
no clouds below 1500 m and no cumulonimbus

METAR: LEGE 061130Z VRB02KT CAVOK 13/08 Q1015

Time: 12:57 (11:57 UTC)

Forecast

The report was made 57 minutes ago, at 11:00 UTC
Forecast valid from 06 at 12 UTC to 07 at 12 UTC
Wind 4 kt from variable directions
Visibility 10 km or more
Few clouds at a height of 4000 ft
Probability 40% :
Temporary
from 06 at 20 UTC to 07 at 08 UTC
Visibility: 2000 m
Broken clouds at a height of 400 ft
mist
Probability 30% :
Temporary
from 06 at 21 UTC to 07 at 08 UTC
Visibility: 0400 m
at a height of 100 ft
patches of fog

TAF: LEGE 061100Z 0612/0712 VRB04KT 9999 FEW040 TX15/0613Z TN05/0706Z PROB40 TEMPO 0620/0708 2000 BR BKN004 PROB30 TEMPO 0621/0708 0400 BCFG VV001

Weather observations and forecasts of more than 4000 airports (METAR and TAF reports).

The available stations are represented by yellow and red dots on the map.

Hover mouse over dot to see the name of the station.

Then click to see weather observations and forecasts.

To change the map : click on the green buttons with a black cross to zoom in, on the green button with a dash to zoom out, or on the green arrows for adjacent maps.


METAR-TAF: